sensor_id;sensor_type;location;lat;lon;timestamp;P1;durP1;ratioP1;P2;durP2;ratioP2
8791;SDS011;4432;50.890;4.744;2023-01-16T00:01:20;2.30;;;1.10;;
8791;SDS011;4432;50.890;4.744;2023-01-16T00:03:47;0.70;;;0.70;;
8791;SDS011;4432;50.890;4.744;2023-01-16T00:06:13;2.23;;;0.80;;
8791;SDS011;4432;50.890;4.744;2023-01-16T00:08:40;0.77;;;0.73;;
8791;SDS011;4432;50.890;4.744;2023-01-16T00:11:06;0.73;;;0.40;;
8791;SDS011;4432;50.890;4.744;2023-01-16T00:13:32;1.70;;;0.90;;
8791;SDS011;4432;50.890;4.744;2023-01-16T00:15:58;1.73;;;0.60;;
8791;SDS011;4432;50.890;4.744;2023-01-16T00:18:24;1.80;;;0.70;;
8791;SDS011;4432;50.890;4.744;2023-01-16T00:20:50;2.50;;;0.90;;
8791;SDS011;4432;50.890;4.744;2023-01-16T00:23:16;3.03;;;0.67;;
8791;SDS011;4432;50.890;4.744;2023-01-16T00:25:42;0.50;;;0.50;;
8791;SDS011;4432;50.890;4.744;2023-01-16T00:28:12;3.40;;;0.60;;
8791;SDS011;4432;50.890;4.744;2023-01-16T00:30:39;4.17;;;0.63;;
8791;SDS011;4432;50.890;4.744;2023-01-16T00:33:05;0.47;;;0.47;;
8791;SDS011;4432;50.890;4.744;2023-01-16T00:35:31;0.87;;;0.53;;
8791;SDS011;4432;50.890;4.744;2023-01-16T00:37:57;0.60;;;0.60;;
8791;SDS011;4432;50.890;4.744;2023-01-16T00:40:23;3.20;;;1.03;;
8791;SDS011;4432;50.890;4.744;2023-01-16T00:42:50;0.50;;;0.50;;
8791;SDS011;4432;50.890;4.744;2023-01-16T00:45:16;0.63;;;0.60;;
8791;SDS011;4432;50.890;4.744;2023-01-16T00:47:42;1.93;;;0.70;;
8791;SDS011;4432;50.890;4.744;2023-01-16T00:50:08;0.40;;;0.23;;
8791;SDS011;4432;50.890;4.744;2023-01-16T00:52:34;0.30;;;0.30;;
8791;SDS011;4432;50.890;4.744;2023-01-16T00:55:00;9.07;;;0.53;;
8791;SDS011;4432;50.890;4.744;2023-01-16T00:57:26;3.20;;;0.70;;
8791;SDS011;4432;50.890;4.744;2023-01-16T00:59:52;1.80;;;0.83;;
8791;SDS011;4432;50.890;4.744;2023-01-16T01:02:17;1.90;;;0.60;;
8791;SDS011;4432;50.890;4.744;2023-01-16T01:04:43;1.67;;;0.50;;
8791;SDS011;4432;50.890;4.744;2023-01-16T01:07:09;2.80;;;0.93;;
8791;SDS011;4432;50.890;4.744;2023-01-16T01:09:35;0.53;;;0.53;;
8791;SDS011;4432;50.890;4.744;2023-01-16T01:12:00;4.33;;;0.70;;
8791;SDS011;4432;50.890;4.744;2023-01-16T01:14:26;1.43;;;0.90;;
8791;SDS011;4432;50.890;4.744;2023-01-16T01:16:53;6.37;;;0.90;;
8791;SDS011;4432;50.890;4.744;2023-01-16T01:19:19;1.03;;;0.60;;
8791;SDS011;4432;50.890;4.744;2023-01-16T01:21:45;4.80;;;0.63;;
8791;SDS011;4432;50.890;4.744;2023-01-16T01:24:10;1.50;;;0.57;;
8791;SDS011;4432;50.890;4.744;2023-01-16T01:26:37;1.00;;;0.57;;
8791;SDS011;4432;50.890;4.744;2023-01-16T01:29:03;1.00;;;0.53;;
8791;SDS011;4432;50.890;4.744;2023-01-16T01:31:29;2.43;;;0.90;;
8791;SDS011;4432;50.890;4.744;2023-01-16T01:33:55;3.93;;;0.80;;
8791;SDS011;4432;50.890;4.744;2023-01-16T01:36:21;1.90;;;0.70;;
8791;SDS011;4432;50.890;4.744;2023-01-16T01:38:47;3.57;;;1.00;;
8791;SDS011;4432;50.890;4.744;2023-01-16T01:41:15;2.53;;;0.80;;
8791;SDS011;4432;50.890;4.744;2023-01-16T01:43:46;3.23;;;1.03;;
8791;SDS011;4432;50.890;4.744;2023-01-16T01:48:43;3.37;;;1.07;;
8791;SDS011;4432;50.890;4.744;2023-01-16T01:51:10;1.47;;;0.70;;
8791;SDS011;4432;50.890;4.744;2023-01-16T01:53:56;3.47;;;1.07;;
8791;SDS011;4432;50.890;4.744;2023-01-16T01:56:33;2.77;;;0.93;;
8791;SDS011;4432;50.890;4.744;2023-01-16T01:59:07;1.97;;;0.70;;
8791;SDS011;4432;50.890;4.744;2023-01-16T02:01:39;2.70;;;0.90;;
8791;SDS011;4432;50.890;4.744;2023-01-16T02:04:07;1.83;;;0.90;;
8791;SDS011;4432;50.890;4.744;2023-01-16T02:06:45;3.03;;;0.80;;
8791;SDS011;4432;50.890;4.744;2023-01-16T02:09:12;2.83;;;0.87;;
8791;SDS011;4432;50.890;4.744;2023-01-16T02:11:48;2.97;;;0.90;;
8791;SDS011;4432;50.890;4.744;2023-01-16T02:14:20;1.13;;;0.57;;
8791;SDS011;4432;50.890;4.744;2023-01-16T02:16:50;4.10;;;0.90;;
8791;SDS011;4432;50.890;4.744;2023-01-16T02:37:14;2.53;;;1.10;;
8791;SDS011;4432;50.890;4.744;2023-01-16T02:43:03;1.13;;;0.83;;
8791;SDS011;4432;50.890;4.744;2023-01-16T02:45:58;2.27;;;1.03;;
8791;SDS011;4432;50.890;4.744;2023-01-16T02:48:32;2.53;;;1.07;;
8791;SDS011;4432;50.890;4.744;2023-01-16T02:56:41;6.23;;;0.70;;
8791;SDS011;4432;50.890;4.744;2023-01-16T02:59:11;4.50;;;1.37;;
8791;SDS011;4432;50.890;4.744;2023-01-16T03:01:39;1.00;;;0.90;;
8791;SDS011;4432;50.890;4.744;2023-01-16T03:07:02;3.73;;;0.87;;
8791;SDS011;4432;50.890;4.744;2023-01-16T03:10:56;3.87;;;1.03;;
8791;SDS011;4432;50.890;4.744;2023-01-16T03:13:06;1.60;;;0.57;;
8791;SDS011;4432;50.890;4.744;2023-01-16T03:18:18;7.73;;;1.00;;
8791;SDS011;4432;50.890;4.744;2023-01-16T03:37:22;2.53;;;1.03;;
8791;SDS011;4432;50.890;4.744;2023-01-16T03:40:07;2.33;;;0.60;;
8791;SDS011;4432;50.890;4.744;2023-01-16T03:42:38;1.63;;;1.00;;
8791;SDS011;4432;50.890;4.744;2023-01-16T03:45:10;1.53;;;0.80;;
8791;SDS011;4432;50.890;4.744;2023-01-16T03:47:42;1.97;;;0.97;;
8791;SDS011;4432;50.890;4.744;2023-01-16T03:50:37;2.00;;;0.93;;
8791;SDS011;4432;50.890;4.744;2023-01-16T03:53:08;1.33;;;0.77;;
8791;SDS011;4432;50.890;4.744;2023-01-16T03:55:42;0.87;;;0.83;;
8791;SDS011;4432;50.890;4.744;2023-01-16T03:58:21;1.70;;;0.77;;
8791;SDS011;4432;50.890;4.744;2023-01-16T04:01:04;2.77;;;0.77;;
8791;SDS011;4432;50.890;4.744;2023-01-16T04:06:37;6.53;;;1.07;;
8791;SDS011;4432;50.890;4.744;2023-01-16T04:09:18;1.67;;;0.77;;
8791;SDS011;4432;50.890;4.744;2023-01-16T04:12:05;1.17;;;0.40;;
8791;SDS011;4432;50.890;4.744;2023-01-16T04:14:32;3.20;;;0.70;;
8791;SDS011;4432;50.890;4.744;2023-01-16T04:16:59;7.87;;;0.90;;
8791;SDS011;4432;50.890;4.744;2023-01-16T04:19:27;0.30;;;0.30;;
8791;SDS011;4432;50.890;4.744;2023-01-16T04:21:55;0.70;;;0.70;;
8791;SDS011;4432;50.890;4.744;2023-01-16T04:24:21;1.03;;;0.77;;
8791;SDS011;4432;50.890;4.744;2023-01-16T04:26:47;4.10;;;0.83;;
8791;SDS011;4432;50.890;4.744;2023-01-16T04:29:13;3.97;;;0.90;;
8791;SDS011;4432;50.890;4.744;2023-01-16T04:31:38;1.57;;;0.70;;
8791;SDS011;4432;50.890;4.744;2023-01-16T04:34:04;5.43;;;0.83;;
8791;SDS011;4432;50.890;4.744;2023-01-16T04:36:30;1.73;;;0.73;;
8791;SDS011;4432;50.890;4.744;2023-01-16T04:38:56;5.73;;;0.93;;
8791;SDS011;4432;50.890;4.744;2023-01-16T04:41:22;1.30;;;0.80;;
8791;SDS011;4432;50.890;4.744;2023-01-16T04:44:04;5.10;;;0.97;;
8791;SDS011;4432;50.890;4.744;2023-01-16T04:46:32;3.17;;;0.80;;
8791;SDS011;4432;50.890;4.744;2023-01-16T04:48:58;4.60;;;0.60;;
8791;SDS011;4432;50.890;4.744;2023-01-16T04:51:24;2.03;;;0.73;;
8791;SDS011;4432;50.890;4.744;2023-01-16T04:53:50;3.30;;;0.67;;
8791;SDS011;4432;50.890;4.744;2023-01-16T04:56:16;5.20;;;1.27;;
8791;SDS011;4432;50.890;4.744;2023-01-16T04:58:42;3.60;;;1.10;;
8791;SDS011;4432;50.890;4.744;2023-01-16T05:01:08;2.77;;;0.67;;
8791;SDS011;4432;50.890;4.744;2023-01-16T05:03:34;7.43;;;0.77;;
8791;SDS011;4432;50.890;4.744;2023-01-16T05:05:59;2.00;;;0.77;;
8791;SDS011;4432;50.890;4.744;2023-01-16T05:08:25;2.87;;;0.70;;
8791;SDS011;4432;50.890;4.744;2023-01-16T05:10:53;3.03;;;0.80;;
8791;SDS011;4432;50.890;4.744;2023-01-16T05:13:20;1.90;;;0.70;;
8791;SDS011;4432;50.890;4.744;2023-01-16T05:15:46;6.03;;;0.63;;
8791;SDS011;4432;50.890;4.744;2023-01-16T05:18:12;6.97;;;1.10;;
8791;SDS011;4432;50.890;4.744;2023-01-16T05:20:38;2.40;;;0.80;;
8791;SDS011;4432;50.890;4.744;2023-01-16T05:23:04;2.13;;;0.70;;
8791;SDS011;4432;50.890;4.744;2023-01-16T05:25:30;2.03;;;0.50;;
8791;SDS011;4432;50.890;4.744;2023-01-16T05:27:57;6.90;;;0.70;;
8791;SDS011;4432;50.890;4.744;2023-01-16T05:30:23;0.97;;;0.63;;
8791;SDS011;4432;50.890;4.744;2023-01-16T05:32:49;2.37;;;0.83;;
8791;SDS011;4432;50.890;4.744;2023-01-16T05:35:14;3.17;;;1.43;;
8791;SDS011;4432;50.890;4.744;2023-01-16T05:37:41;3.77;;;0.80;;
8791;SDS011;4432;50.890;4.744;2023-01-16T05:40:08;2.10;;;0.70;;
8791;SDS011;4432;50.890;4.744;2023-01-16T05:42:35;0.50;;;0.50;;
8791;SDS011;4432;50.890;4.744;2023-01-16T05:45:01;0.60;;;0.53;;
8791;SDS011;4432;50.890;4.744;2023-01-16T05:47:27;2.00;;;0.50;;
8791;SDS011;4432;50.890;4.744;2023-01-16T05:49:53;1.57;;;0.47;;
8791;SDS011;4432;50.890;4.744;2023-01-16T05:52:19;1.30;;;1.00;;
8791;SDS011;4432;50.890;4.744;2023-01-16T05:54:45;2.23;;;0.57;;
8791;SDS011;4432;50.890;4.744;2023-01-16T05:57:10;0.87;;;0.87;;
8791;SDS011;4432;50.890;4.744;2023-01-16T05:59:37;1.80;;;0.83;;
8791;SDS011;4432;50.890;4.744;2023-01-16T06:02:03;0.67;;;0.53;;
8791;SDS011;4432;50.890;4.744;2023-01-16T06:04:29;0.50;;;0.27;;
8791;SDS011;4432;50.890;4.744;2023-01-16T06:06:55;0.70;;;0.57;;
8791;SDS011;4432;50.890;4.744;2023-01-16T06:09:21;1.37;;;0.87;;
8791;SDS011;4432;50.890;4.744;2023-01-16T06:11:46;1.27;;;0.70;;
8791;SDS011;4432;50.890;4.744;2023-01-16T06:14:13;1.50;;;0.57;;
8791;SDS011;4432;50.890;4.744;2023-01-16T06:16:39;0.60;;;0.23;;
8791;SDS011;4432;50.890;4.744;2023-01-16T06:19:04;1.60;;;0.47;;
8791;SDS011;4432;50.890;4.744;2023-01-16T06:21:30;4.43;;;0.67;;
8791;SDS011;4432;50.890;4.744;2023-01-16T06:23:56;2.30;;;0.20;;
8791;SDS011;4432;50.890;4.744;2023-01-16T06:26:22;3.53;;;0.70;;
8791;SDS011;4432;50.890;4.744;2023-01-16T06:28:48;1.60;;;0.40;;
8791;SDS011;4432;50.890;4.744;2023-01-16T06:31:13;2.37;;;0.70;;
8791;SDS011;4432;50.890;4.744;2023-01-16T06:33:39;0.33;;;0.33;;
8791;SDS011;4432;50.890;4.744;2023-01-16T06:36:05;0.03;;;0.03;;
8791;SDS011;4432;50.890;4.744;2023-01-16T06:38:31;3.23;;;0.47;;
8791;SDS011;4432;50.890;4.744;2023-01-16T06:40:56;3.20;;;0.50;;
8791;SDS011;4432;50.890;4.744;2023-01-16T06:43:23;0.83;;;0.33;;
8791;SDS011;4432;50.890;4.744;2023-01-16T06:45:52;5.67;;;0.70;;
8791;SDS011;4432;50.890;4.744;2023-01-16T06:48:19;1.63;;;0.50;;
8791;SDS011;4432;50.890;4.744;2023-01-16T06:50:45;1.33;;;0.63;;
8791;SDS011;4432;50.890;4.744;2023-01-16T06:53:11;1.40;;;0.80;;
8791;SDS011;4432;50.890;4.744;2023-01-16T06:55:38;0.33;;;0.23;;
8791;SDS011;4432;50.890;4.744;2023-01-16T06:58:05;1.20;;;0.87;;
8791;SDS011;4432;50.890;4.744;2023-01-16T07:00:31;4.33;;;0.70;;
8791;SDS011;4432;50.890;4.744;2023-01-16T07:02:59;0.47;;;0.47;;
8791;SDS011;4432;50.890;4.744;2023-01-16T07:05:25;0.33;;;0.33;;
8791;SDS011;4432;50.890;4.744;2023-01-16T07:07:52;1.93;;;0.33;;
8791;SDS011;4432;50.890;4.744;2023-01-16T07:10:19;0.50;;;0.40;;
8791;SDS011;4432;50.890;4.744;2023-01-16T07:12:46;0.20;;;0.20;;
8791;SDS011;4432;50.890;4.744;2023-01-16T07:15:16;2.23;;;0.20;;
8791;SDS011;4432;50.890;4.744;2023-01-16T07:18:00;0.10;;;0.10;;
8791;SDS011;4432;50.890;4.744;2023-01-16T07:20:50;3.13;;;0.20;;
8791;SDS011;4432;50.890;4.744;2023-01-16T07:23:38;0.30;;;0.30;;
8791;SDS011;4432;50.890;4.744;2023-01-16T07:26:07;1.03;;;0.27;;
8791;SDS011;4432;50.890;4.744;2023-01-16T07:28:34;0.40;;;0.40;;
8791;SDS011;4432;50.890;4.744;2023-01-16T07:31:01;1.27;;;0.30;;
8791;SDS011;4432;50.890;4.744;2023-01-16T07:33:29;0.37;;;0.37;;
8791;SDS011;4432;50.890;4.744;2023-01-16T07:35:55;0.10;;;0.10;;
8791;SDS011;4432;50.890;4.744;2023-01-16T07:38:21;0.53;;;0.30;;
8791;SDS011;4432;50.890;4.744;2023-01-16T07:40:47;0.53;;;0.33;;
8791;SDS011;4432;50.890;4.744;2023-01-16T07:43:12;0.63;;;0.37;;
8791;SDS011;4432;50.890;4.744;2023-01-16T07:45:38;0.10;;;0.10;;
8791;SDS011;4432;50.890;4.744;2023-01-16T07:48:04;0.00;;;0.00;;
8791;SDS011;4432;50.890;4.744;2023-01-16T07:50:30;0.10;;;0.10;;
8791;SDS011;4432;50.890;4.744;2023-01-16T07:52:56;0.10;;;0.10;;
8791;SDS011;4432;50.890;4.744;2023-01-16T07:55:22;0.00;;;0.00;;
8791;SDS011;4432;50.890;4.744;2023-01-16T07:57:49;0.20;;;0.20;;
8791;SDS011;4432;50.890;4.744;2023-01-16T08:00:14;2.30;;;0.20;;
8791;SDS011;4432;50.890;4.744;2023-01-16T08:02:41;0.13;;;0.13;;
8791;SDS011;4432;50.890;4.744;2023-01-16T08:05:07;0.10;;;0.10;;
8791;SDS011;4432;50.890;4.744;2023-01-16T08:07:34;0.10;;;0.10;;
8791;SDS011;4432;50.890;4.744;2023-01-16T08:10:00;0.40;;;0.40;;
8791;SDS011;4432;50.890;4.744;2023-01-16T08:12:25;0.10;;;0.10;;
8791;SDS011;4432;50.890;4.744;2023-01-16T08:14:51;0.00;;;0.00;;
8791;SDS011;4432;50.890;4.744;2023-01-16T08:17:17;0.20;;;0.20;;
8791;SDS011;4432;50.890;4.744;2023-01-16T08:19:46;0.30;;;0.30;;
8791;SDS011;4432;50.890;4.744;2023-01-16T08:22:12;0.13;;;0.13;;
8791;SDS011;4432;50.890;4.744;2023-01-16T08:24:38;0.10;;;0.10;;
8791;SDS011;4432;50.890;4.744;2023-01-16T08:27:04;0.23;;;0.10;;
8791;SDS011;4432;50.890;4.744;2023-01-16T08:29:30;0.17;;;0.17;;
8791;SDS011;4432;50.890;4.744;2023-01-16T08:31:56;0.20;;;0.20;;
8791;SDS011;4432;50.890;4.744;2023-01-16T08:34:21;0.30;;;0.10;;
8791;SDS011;4432;50.890;4.744;2023-01-16T08:36:47;0.03;;;0.03;;
8791;SDS011;4432;50.890;4.744;2023-01-16T08:39:13;0.00;;;0.00;;
8791;SDS011;4432;50.890;4.744;2023-01-16T08:41:39;0.10;;;0.10;;
8791;SDS011;4432;50.890;4.744;2023-01-16T08:44:23;3.13;;;0.40;;
8791;SDS011;4432;50.890;4.744;2023-01-16T08:47:09;0.13;;;0.13;;
8791;SDS011;4432;50.890;4.744;2023-01-16T08:50:16;1.07;;;0.23;;
8791;SDS011;4432;50.890;4.744;2023-01-16T08:53:01;0.37;;;0.10;;
8791;SDS011;4432;50.890;4.744;2023-01-16T08:55:27;0.47;;;0.20;;
8791;SDS011;4432;50.890;4.744;2023-01-16T08:57:53;0.20;;;0.20;;
8791;SDS011;4432;50.890;4.744;2023-01-16T09:00:22;0.30;;;0.30;;
8791;SDS011;4432;50.890;4.744;2023-01-16T09:02:47;0.40;;;0.20;;
8791;SDS011;4432;50.890;4.744;2023-01-16T09:05:13;0.20;;;0.20;;
8791;SDS011;4432;50.890;4.744;2023-01-16T09:07:39;0.10;;;0.10;;
8791;SDS011;4432;50.890;4.744;2023-01-16T09:10:05;2.93;;;0.13;;
8791;SDS011;4432;50.890;4.744;2023-01-16T09:12:32;0.43;;;0.40;;
8791;SDS011;4432;50.890;4.744;2023-01-16T09:15:16;0.30;;;0.30;;
8791;SDS011;4432;50.890;4.744;2023-01-16T09:17:42;0.20;;;0.20;;
8791;SDS011;4432;50.890;4.744;2023-01-16T09:20:08;0.27;;;0.27;;
8791;SDS011;4432;50.890;4.744;2023-01-16T09:22:35;0.37;;;0.37;;
8791;SDS011;4432;50.890;4.744;2023-01-16T09:25:00;0.20;;;0.20;;
8791;SDS011;4432;50.890;4.744;2023-01-16T09:27:26;0.30;;;0.20;;
8791;SDS011;4432;50.890;4.744;2023-01-16T09:29:52;0.20;;;0.20;;
8791;SDS011;4432;50.890;4.744;2023-01-16T09:32:19;3.80;;;0.40;;
8791;SDS011;4432;50.890;4.744;2023-01-16T09:34:45;0.50;;;0.27;;
8791;SDS011;4432;50.890;4.744;2023-01-16T09:37:11;2.13;;;0.43;;
8791;SDS011;4432;50.890;4.744;2023-01-16T09:39:37;0.27;;;0.20;;
8791;SDS011;4432;50.890;4.744;2023-01-16T09:42:11;0.43;;;0.43;;
8791;SDS011;4432;50.890;4.744;2023-01-16T09:45:15;0.20;;;0.20;;
8791;SDS011;4432;50.890;4.744;2023-01-16T09:47:45;0.50;;;0.50;;
8791;SDS011;4432;50.890;4.744;2023-01-16T09:50:17;0.10;;;0.10;;
8791;SDS011;4432;50.890;4.744;2023-01-16T09:53:10;0.67;;;0.50;;
8791;SDS011;4432;50.890;4.744;2023-01-16T09:56:02;0.50;;;0.50;;
8791;SDS011;4432;50.890;4.744;2023-01-16T09:58:49;0.53;;;0.53;;
8791;SDS011;4432;50.890;4.744;2023-01-16T10:01:37;0.40;;;0.40;;
8791;SDS011;4432;50.890;4.744;2023-01-16T10:04:20;0.30;;;0.30;;
8791;SDS011;4432;50.890;4.744;2023-01-16T10:07:00;0.60;;;0.53;;
8791;SDS011;4432;50.890;4.744;2023-01-16T10:12:20;0.80;;;0.80;;
8791;SDS011;4432;50.890;4.744;2023-01-16T10:17:53;0.40;;;0.40;;
8791;SDS011;4432;50.890;4.744;2023-01-16T10:20:51;0.20;;;0.20;;
8791;SDS011;4432;50.890;4.744;2023-01-16T10:26:30;0.40;;;0.40;;
8791;SDS011;4432;50.890;4.744;2023-01-16T10:31:41;0.23;;;0.23;;
8791;SDS011;4432;50.890;4.744;2023-01-16T10:34:23;0.20;;;0.20;;
8791;SDS011;4432;50.890;4.744;2023-01-16T10:37:11;0.30;;;0.30;;
8791;SDS011;4432;50.890;4.744;2023-01-16T10:39:37;0.10;;;0.10;;
8791;SDS011;4432;50.890;4.744;2023-01-16T10:44:58;0.23;;;0.23;;
8791;SDS011;4432;50.890;4.744;2023-01-16T10:48:02;0.27;;;0.27;;
8791;SDS011;4432;50.890;4.744;2023-01-16T10:50:47;0.10;;;0.10;;
8791;SDS011;4432;50.890;4.744;2023-01-16T10:53:13;0.10;;;0.10;;
8791;SDS011;4432;50.890;4.744;2023-01-16T10:55:44;0.20;;;0.20;;
8791;SDS011;4432;50.890;4.744;2023-01-16T10:58:22;0.10;;;0.10;;
8791;SDS011;4432;50.890;4.744;2023-01-16T11:01:06;0.10;;;0.10;;
8791;SDS011;4432;50.890;4.744;2023-01-16T11:03:39;0.17;;;0.17;;
8791;SDS011;4432;50.890;4.744;2023-01-16T11:08:44;0.17;;;0.17;;
8791;SDS011;4432;50.890;4.744;2023-01-16T11:11:17;0.20;;;0.20;;
8791;SDS011;4432;50.890;4.744;2023-01-16T11:14:44;0.20;;;0.10;;
8791;SDS011;4432;50.890;4.744;2023-01-16T11:20:18;0.20;;;0.20;;
8791;SDS011;4432;50.890;4.744;2023-01-16T11:22:53;0.30;;;0.23;;
8791;SDS011;4432;50.890;4.744;2023-01-16T11:25:24;0.60;;;0.40;;
8791;SDS011;4432;50.890;4.744;2023-01-16T11:27:52;0.10;;;0.10;;
8791;SDS011;4432;50.890;4.744;2023-01-16T11:30:27;0.20;;;0.17;;
8791;SDS011;4432;50.890;4.744;2023-01-16T11:32:56;0.10;;;0.10;;
8791;SDS011;4432;50.890;4.744;2023-01-16T11:35:25;0.10;;;0.10;;
8791;SDS011;4432;50.890;4.744;2023-01-16T11:37:57;0.13;;;0.13;;
8791;SDS011;4432;50.890;4.744;2023-01-16T11:40:25;0.07;;;0.07;;
8791;SDS011;4432;50.890;4.744;2023-01-16T11:42:56;0.43;;;0.20;;
8791;SDS011;4432;50.890;4.744;2023-01-16T11:45:43;0.30;;;0.30;;
8791;SDS011;4432;50.890;4.744;2023-01-16T11:48:35;0.10;;;0.10;;
8791;SDS011;4432;50.890;4.744;2023-01-16T11:51:06;0.47;;;0.30;;
8791;SDS011;4432;50.890;4.744;2023-01-16T11:53:37;0.20;;;0.20;;
8791;SDS011;4432;50.890;4.744;2023-01-16T12:02:05;0.20;;;0.20;;
8791;SDS011;4432;50.890;4.744;2023-01-16T12:04:48;0.20;;;0.20;;
8791;SDS011;4432;50.890;4.744;2023-01-16T12:07:55;0.13;;;0.13;;
8791;SDS011;4432;50.890;4.744;2023-01-16T12:14:04;0.00;;;0.00;;
8791;SDS011;4432;50.890;4.744;2023-01-16T12:25:39;0.20;;;0.20;;
8791;SDS011;4432;50.890;4.744;2023-01-16T12:34:26;0.37;;;0.37;;
8791;SDS011;4432;50.890;4.744;2023-01-16T12:43:49;0.23;;;0.23;;
8791;SDS011;4432;50.890;4.744;2023-01-16T12:49:31;0.40;;;0.40;;
8791;SDS011;4432;50.890;4.744;2023-01-16T12:52:18;0.33;;;0.20;;
8791;SDS011;4432;50.890;4.744;2023-01-16T12:55:00;0.40;;;0.40;;
8791;SDS011;4432;50.890;4.744;2023-01-16T13:00:42;0.87;;;0.47;;
8791;SDS011;4432;50.890;4.744;2023-01-16T13:03:44;0.40;;;0.40;;
8791;SDS011;4432;50.890;4.744;2023-01-16T13:06:34;0.30;;;0.30;;
8791;SDS011;4432;50.890;4.744;2023-01-16T13:09:28;0.20;;;0.20;;
8791;SDS011;4432;50.890;4.744;2023-01-16T13:12:18;0.20;;;0.20;;
8791;SDS011;4432;50.890;4.744;2023-01-16T13:15:07;1.03;;;0.43;;
8791;SDS011;4432;50.890;4.744;2023-01-16T13:17:44;0.13;;;0.13;;
8791;SDS011;4432;50.890;4.744;2023-01-16T13:20:13;0.50;;;0.50;;
8791;SDS011;4432;50.890;4.744;2023-01-16T13:22:47;0.20;;;0.20;;
8791;SDS011;4432;50.890;4.744;2023-01-16T13:25:23;0.17;;;0.17;;
8791;SDS011;4432;50.890;4.744;2023-01-16T13:28:13;0.33;;;0.33;;
8791;SDS011;4432;50.890;4.744;2023-01-16T13:34:16;0.30;;;0.30;;
8791;SDS011;4432;50.890;4.744;2023-01-16T13:37:03;0.40;;;0.40;;
8791;SDS011;4432;50.890;4.744;2023-01-16T13:42:27;0.30;;;0.30;;
8791;SDS011;4432;50.890;4.744;2023-01-16T13:44:58;0.30;;;0.30;;
8791;SDS011;4432;50.890;4.744;2023-01-16T13:47:46;0.37;;;0.37;;
8791;SDS011;4432;50.890;4.744;2023-01-16T13:50:21;0.37;;;0.37;;
8791;SDS011;4432;50.890;4.744;2023-01-16T13:52:53;1.03;;;0.47;;
8791;SDS011;4432;50.890;4.744;2023-01-16T13:55:29;0.60;;;0.60;;
8791;SDS011;4432;50.890;4.744;2023-01-16T13:58:07;0.80;;;0.80;;
8791;SDS011;4432;50.890;4.744;2023-01-16T14:01:01;0.70;;;0.40;;
8791;SDS011;4432;50.890;4.744;2023-01-16T14:03:29;0.47;;;0.47;;
8791;SDS011;4432;50.890;4.744;2023-01-16T14:17:21;0.50;;;0.50;;
8791;SDS011;4432;50.890;4.744;2023-01-16T14:19:54;0.87;;;0.60;;
8791;SDS011;4432;50.890;4.744;2023-01-16T14:22:26;0.60;;;0.60;;
8791;SDS011;4432;50.890;4.744;2023-01-16T14:25:00;0.50;;;0.50;;
8791;SDS011;4432;50.890;4.744;2023-01-16T14:27:29;0.33;;;0.33;;
8791;SDS011;4432;50.890;4.744;2023-01-16T14:30:00;0.47;;;0.47;;
8791;SDS011;4432;50.890;4.744;2023-01-16T14:32:29;0.53;;;0.53;;
8791;SDS011;4432;50.890;4.744;2023-01-16T14:37:39;0.87;;;0.80;;
8791;SDS011;4432;50.890;4.744;2023-01-16T14:45:35;0.90;;;0.90;;
8791;SDS011;4432;50.890;4.744;2023-01-16T14:53:52;0.63;;;0.63;;
8791;SDS011;4432;50.890;4.744;2023-01-16T14:56:42;1.20;;;0.80;;
8791;SDS011;4432;50.890;4.744;2023-01-16T15:02:10;0.80;;;0.80;;
8791;SDS011;4432;50.890;4.744;2023-01-16T15:07:22;0.97;;;0.80;;
8791;SDS011;4432;50.890;4.744;2023-01-16T15:10:05;0.67;;;0.67;;
8791;SDS011;4432;50.890;4.744;2023-01-16T15:12:38;1.30;;;0.80;;
8791;SDS011;4432;50.890;4.744;2023-01-16T15:15:18;1.33;;;0.90;;
8791;SDS011;4432;50.890;4.744;2023-01-16T15:17:49;3.77;;;1.00;;
8791;SDS011;4432;50.890;4.744;2023-01-16T15:20:36;1.00;;;0.90;;
8791;SDS011;4432;50.890;4.744;2023-01-16T15:23:22;2.23;;;1.00;;
8791;SDS011;4432;50.890;4.744;2023-01-16T15:26:05;1.23;;;0.93;;
8791;SDS011;4432;50.890;4.744;2023-01-16T15:31:07;1.23;;;1.03;;
8791;SDS011;4432;50.890;4.744;2023-01-16T15:36:42;1.00;;;1.00;;
8791;SDS011;4432;50.890;4.744;2023-01-16T15:41:44;1.10;;;1.10;;
8791;SDS011;4432;50.890;4.744;2023-01-16T15:44:31;2.00;;;1.50;;
8791;SDS011;4432;50.890;4.744;2023-01-16T15:52:47;2.43;;;1.30;;
8791;SDS011;4432;50.890;4.744;2023-01-16T15:57:48;1.07;;;0.97;;
8791;SDS011;4432;50.890;4.744;2023-01-16T16:00:28;3.30;;;1.00;;
8791;SDS011;4432;50.890;4.744;2023-01-16T16:03:18;2.93;;;1.20;;
8791;SDS011;4432;50.890;4.744;2023-01-16T16:05:59;1.20;;;1.20;;
8791;SDS011;4432;50.890;4.744;2023-01-16T16:08:30;1.60;;;1.50;;
8791;SDS011;4432;50.890;4.744;2023-01-16T16:11:00;1.47;;;1.37;;
8791;SDS011;4432;50.890;4.744;2023-01-16T16:13:48;1.43;;;1.33;;
8791;SDS011;4432;50.890;4.744;2023-01-16T16:19:04;1.50;;;1.40;;
8791;SDS011;4432;50.890;4.744;2023-01-16T16:21:31;3.13;;;1.27;;
8791;SDS011;4432;50.890;4.744;2023-01-16T16:24:27;1.30;;;1.20;;
8791;SDS011;4432;50.890;4.744;2023-01-16T16:26:56;1.50;;;1.40;;
8791;SDS011;4432;50.890;4.744;2023-01-16T16:29:23;1.40;;;1.30;;
8791;SDS011;4432;50.890;4.744;2023-01-16T16:31:48;1.50;;;1.40;;
8791;SDS011;4432;50.890;4.744;2023-01-16T16:36:45;1.83;;;1.50;;
8791;SDS011;4432;50.890;4.744;2023-01-16T16:39:25;2.17;;;1.37;;
8791;SDS011;4432;50.890;4.744;2023-01-16T16:41:58;3.80;;;1.93;;
8791;SDS011;4432;50.890;4.744;2023-01-16T16:45:06;1.43;;;1.33;;
8791;SDS011;4432;50.890;4.744;2023-01-16T16:47:37;1.87;;;1.40;;
8791;SDS011;4432;50.890;4.744;2023-01-16T16:53:05;1.47;;;1.20;;
8791;SDS011;4432;50.890;4.744;2023-01-16T16:55:39;0.83;;;0.83;;
8791;SDS011;4432;50.890;4.744;2023-01-16T16:58:40;0.90;;;0.80;;
8791;SDS011;4432;50.890;4.744;2023-01-16T17:01:05;1.07;;;0.97;;
8791;SDS011;4432;50.890;4.744;2023-01-16T17:03:31;0.80;;;0.80;;
8791;SDS011;4432;50.890;4.744;2023-01-16T17:05:57;1.70;;;1.23;;
8791;SDS011;4432;50.890;4.744;2023-01-16T17:08:26;1.03;;;0.80;;
8791;SDS011;4432;50.890;4.744;2023-01-16T17:10:55;1.97;;;0.90;;
8791;SDS011;4432;50.890;4.744;2023-01-16T17:13:22;0.73;;;0.73;;
8791;SDS011;4432;50.890;4.744;2023-01-16T17:15:56;0.87;;;0.87;;
8791;SDS011;4432;50.890;4.744;2023-01-16T17:18:24;1.17;;;1.00;;
8791;SDS011;4432;50.890;4.744;2023-01-16T17:20:51;2.80;;;0.90;;
8791;SDS011;4432;50.890;4.744;2023-01-16T17:23:18;0.70;;;0.70;;
8791;SDS011;4432;50.890;4.744;2023-01-16T17:25:44;1.03;;;0.70;;
8791;SDS011;4432;50.890;4.744;2023-01-16T17:28:11;1.27;;;0.80;;
8791;SDS011;4432;50.890;4.744;2023-01-16T17:30:38;0.50;;;0.50;;
8791;SDS011;4432;50.890;4.744;2023-01-16T17:33:06;0.50;;;0.50;;
8791;SDS011;4432;50.890;4.744;2023-01-16T17:35:45;1.20;;;1.10;;
8791;SDS011;4432;50.890;4.744;2023-01-16T17:38:24;0.80;;;0.80;;
8791;SDS011;4432;50.890;4.744;2023-01-16T17:40:50;0.60;;;0.60;;
8791;SDS011;4432;50.890;4.744;2023-01-16T17:43:17;1.23;;;0.53;;
8791;SDS011;4432;50.890;4.744;2023-01-16T17:46:08;2.13;;;0.67;;
8791;SDS011;4432;50.890;4.744;2023-01-16T17:48:38;0.80;;;0.70;;
8791;SDS011;4432;50.890;4.744;2023-01-16T17:51:05;2.00;;;0.63;;
8791;SDS011;4432;50.890;4.744;2023-01-16T17:53:31;0.50;;;0.50;;
8791;SDS011;4432;50.890;4.744;2023-01-16T17:55:59;1.50;;;0.63;;
8791;SDS011;4432;50.890;4.744;2023-01-16T17:58:27;0.60;;;0.60;;
8791;SDS011;4432;50.890;4.744;2023-01-16T18:01:24;2.00;;;0.70;;
8791;SDS011;4432;50.890;4.744;2023-01-16T18:03:52;1.07;;;0.97;;
8791;SDS011;4432;50.890;4.744;2023-01-16T18:06:22;1.00;;;1.00;;
8791;SDS011;4432;50.890;4.744;2023-01-16T18:08:49;5.20;;;1.10;;
8791;SDS011;4432;50.890;4.744;2023-01-16T18:11:16;0.90;;;0.90;;
8791;SDS011;4432;50.890;4.744;2023-01-16T18:14:00;1.93;;;1.20;;
8791;SDS011;4432;50.890;4.744;2023-01-16T18:16:45;1.60;;;1.37;;
8791;SDS011;4432;50.890;4.744;2023-01-16T18:19:29;3.73;;;1.13;;
8791;SDS011;4432;50.890;4.744;2023-01-16T18:21:55;1.10;;;1.00;;
8791;SDS011;4432;50.890;4.744;2023-01-16T18:24:28;2.23;;;1.63;;
8791;SDS011;4432;50.890;4.744;2023-01-16T18:27:02;4.20;;;1.03;;
8791;SDS011;4432;50.890;4.744;2023-01-16T18:29:32;0.60;;;0.60;;
8791;SDS011;4432;50.890;4.744;2023-01-16T18:31:59;0.80;;;0.80;;
8791;SDS011;4432;50.890;4.744;2023-01-16T18:34:44;1.13;;;0.80;;
8791;SDS011;4432;50.890;4.744;2023-01-16T18:39:57;1.50;;;0.80;;
8791;SDS011;4432;50.890;4.744;2023-01-16T18:42:41;1.47;;;0.80;;